createdAt,value
2022-08-20T00:01:34.264Z,17.09
2022-08-20T00:04:01.674Z,17.29
2022-08-20T00:06:28.998Z,17.12
2022-08-20T00:09:07.751Z,16.97
2022-08-20T00:11:34.561Z,16.89
2022-08-20T00:14:02.384Z,17.06
2022-08-20T00:16:41.263Z,17.05
2022-08-20T00:19:10.491Z,17.05
2022-08-20T00:21:37.337Z,16.94
2022-08-20T00:24:04.439Z,17.07
2022-08-20T00:26:31.090Z,17.07
2022-08-20T00:28:57.838Z,16.91
2022-08-20T00:31:24.770Z,16.89
2022-08-20T00:33:54.686Z,16.86
2022-08-20T00:36:21.603Z,16.93
2022-08-20T00:38:48.434Z,17.01
2022-08-20T00:41:53.734Z,17.03
2022-08-20T00:44:21.325Z,16.82
2022-08-20T00:46:57.183Z,16.93
2022-08-20T00:49:45.600Z,16.92
2022-08-20T00:52:34.663Z,17.03
2022-08-20T00:55:01.796Z,16.97
2022-08-20T01:01:15.280Z,16.85
2022-08-20T01:03:42.028Z,16.71
2022-08-20T01:06:08.884Z,16.77
2022-08-20T01:08:39.109Z,16.78
2022-08-20T01:11:05.792Z,16.71
2022-08-20T01:13:32.540Z,16.42
2022-08-20T01:15:59.167Z,16.65
2022-08-20T01:18:26.585Z,16.85
2022-08-20T01:21:01.634Z,17.08
2022-08-20T01:23:51.151Z,16.75
2022-08-20T01:26:50.559Z,16.45
2022-08-20T01:29:57.029Z,16.72
2022-08-20T01:32:23.596Z,16.85
2022-08-20T01:34:50.288Z,16.88
2022-08-20T01:37:17.015Z,16.92
2022-08-20T01:39:59.212Z,16.83
2022-08-20T01:43:03.594Z,16.90
2022-08-20T01:45:31.080Z,16.99
2022-08-20T01:47:58.330Z,16.99
2022-08-20T01:50:37.173Z,17.19
2022-08-20T01:53:42.455Z,17.10
2022-08-20T01:56:10.905Z,17.18
2022-08-20T02:01:48.440Z,17.11
2022-08-20T02:04:15.651Z,17.16
2022-08-20T02:06:56.262Z,17.23
2022-08-20T02:13:27.435Z,17.27
2022-08-20T02:16:07.400Z,16.89
2022-08-20T02:18:34.447Z,16.93
2022-08-20T02:24:22.168Z,16.99
2022-08-20T02:27:13.886Z,17.01
2022-08-20T02:32:57.898Z,17.28
2022-08-20T02:35:34.068Z,17.29
2022-08-20T02:38:04.387Z,17.02
2022-08-20T02:40:40.363Z,17.08
2022-08-20T02:43:07.103Z,17.19
2022-08-20T02:45:33.945Z,17.31
2022-08-20T02:48:06.509Z,17.21
2022-08-20T02:53:21.689Z,17.07
2022-08-20T02:55:48.486Z,16.87
2022-08-20T02:58:17.083Z,16.90
2022-08-20T03:00:44.221Z,16.66
2022-08-20T03:03:11.133Z,16.92
2022-08-20T03:06:01.355Z,17.19
2022-08-20T03:08:40.779Z,17.21
2022-08-20T03:11:07.692Z,17.18
2022-08-20T03:13:37.560Z,17.20
2022-08-20T03:16:04.500Z,17.21
2022-08-20T03:18:52.283Z,17.18
2022-08-20T03:21:40.986Z,16.97
2022-08-20T03:24:10.859Z,16.68
2022-08-20T03:26:39.751Z,16.75
2022-08-20T03:29:06.469Z,16.93
2022-08-20T03:34:38.158Z,16.70
2022-08-20T03:37:04.920Z,16.74
2022-08-20T03:39:33.689Z,16.76
2022-08-20T03:42:22.177Z,16.58
2022-08-20T03:44:58.692Z,16.34
2022-08-20T03:47:26.845Z,16.69
2022-08-20T03:53:13.296Z,16.21
2022-08-20T03:56:07.100Z,16.16
2022-08-20T03:58:51.910Z,16.37
2022-08-20T04:01:45.258Z,16.44
2022-08-20T04:04:18.196Z,16.56
2022-08-20T04:06:45.078Z,16.64
2022-08-20T04:09:20.410Z,16.71
2022-08-20T04:14:30.560Z,16.51
2022-08-20T04:17:20.251Z,16.78
2022-08-20T04:20:07.462Z,16.39
2022-08-20T04:22:38.103Z,16.37
2022-08-20T04:25:11.533Z,16.37
2022-08-20T04:27:52.189Z,16.42
2022-08-20T04:30:19.530Z,16.53
2022-08-20T04:32:46.152Z,16.57
2022-08-20T04:35:50.063Z,16.91
2022-08-20T04:38:22.667Z,16.58
2022-08-20T04:40:53.585Z,16.31
2022-08-20T04:43:23.334Z,16.33
2022-08-20T04:45:49.998Z,16.49
2022-08-20T04:48:16.662Z,16.37
2022-08-20T04:50:44.810Z,16.34
2022-08-20T04:53:21.656Z,16.19
2022-08-20T04:55:52.036Z,15.90
2022-08-20T04:58:23.705Z,15.80
2022-08-20T05:00:52.061Z,15.67
2022-08-20T05:03:18.828Z,15.74
2022-08-20T05:05:45.567Z,15.70
2022-08-20T05:08:19.628Z,15.74
2022-08-20T05:10:47.597Z,15.77
2022-08-20T05:13:14.387Z,15.95
2022-08-20T05:15:41.130Z,16.19
2022-08-20T05:18:08.087Z,15.91
2022-08-20T05:20:37.415Z,15.94
2022-08-20T05:23:12.651Z,15.83
2022-08-20T05:25:39.898Z,15.84
2022-08-20T05:28:08.647Z,15.81
2022-08-20T05:30:49.680Z,15.70
2022-08-20T05:33:21.241Z,15.62
2022-08-20T05:35:53.282Z,15.54
2022-08-20T05:38:24.876Z,15.47
2022-08-20T05:40:51.592Z,15.66
2022-08-20T05:43:22.087Z,15.69
2022-08-20T05:45:54.632Z,15.74
2022-08-20T05:48:28.378Z,15.58
2022-08-20T05:50:55.350Z,15.49
2022-08-20T05:53:23.034Z,15.49
2022-08-20T05:55:52.617Z,15.49
2022-08-20T05:58:25.061Z,15.59
2022-08-20T06:00:52.553Z,15.52
2022-08-20T06:03:25.608Z,15.60
2022-08-20T06:05:52.243Z,15.60
2022-08-20T06:08:18.931Z,15.64
2022-08-20T06:10:45.710Z,15.62
2022-08-20T06:13:13.943Z,15.60
2022-08-20T06:15:41.099Z,15.67
2022-08-20T06:18:27.451Z,15.72
2022-08-20T06:20:55.823Z,15.69
2022-08-20T06:23:22.714Z,15.73
2022-08-20T06:25:53.559Z,15.81
2022-08-20T06:28:20.400Z,15.83
2022-08-20T06:30:47.234Z,15.88
2022-08-20T06:33:14.142Z,16.11
2022-08-20T06:35:41.080Z,16.20
2022-08-20T06:38:10.008Z,16.22
2022-08-20T06:40:36.681Z,16.17
2022-08-20T06:43:03.484Z,16.22
2022-08-20T06:45:31.643Z,16.37
2022-08-20T06:48:06.145Z,16.47
2022-08-20T06:50:47.100Z,16.47
2022-08-20T06:53:22.729Z,16.65
2022-08-20T06:55:56.069Z,16.64
2022-08-20T06:58:40.424Z,16.62
2022-08-20T07:01:10.185Z,16.56
2022-08-20T07:03:42.161Z,16.55
2022-08-20T07:06:23.729Z,16.41
2022-08-20T07:08:50.481Z,16.35
2022-08-20T07:11:17.134Z,16.27
2022-08-20T07:13:43.782Z,16.19
2022-08-20T07:19:27.261Z,16.35
2022-08-20T07:22:00.219Z,16.56
2022-08-20T07:27:12.213Z,16.70
2022-08-20T07:29:38.839Z,16.78
2022-08-20T07:32:05.984Z,16.91
2022-08-20T07:34:39.588Z,16.74
2022-08-20T07:37:14.162Z,16.73
2022-08-20T07:39:40.998Z,16.69
2022-08-20T07:42:07.711Z,16.62
2022-08-20T07:44:34.343Z,16.89
2022-08-20T07:47:01.273Z,17.01
2022-08-20T07:49:29.779Z,17.18
2022-08-20T07:51:56.478Z,17.12
2022-08-20T07:54:23.131Z,17.18
2022-08-20T07:56:51.039Z,17.34
2022-08-20T07:59:17.695Z,17.49
2022-08-20T08:01:44.544Z,17.37
2022-08-20T08:04:11.241Z,17.50
2022-08-20T08:06:49.028Z,17.37
2022-08-20T08:09:19.868Z,17.34
2022-08-20T08:11:55.300Z,17.38
2022-08-20T08:14:22.699Z,17.46
2022-08-20T08:16:51.603Z,17.32
2022-08-20T08:23:31.840Z,17.23
2022-08-20T08:29:50.651Z,17.13
2022-08-20T08:32:25.250Z,17.19
2022-08-20T08:34:52.011Z,17.31
2022-08-20T08:37:18.737Z,17.59
2022-08-20T08:49:48.087Z,17.53
2022-08-20T08:52:22.950Z,17.52
2022-08-20T08:54:56.516Z,17.41
2022-08-20T08:57:23.184Z,17.43
2022-08-20T09:00:04.231Z,17.55
2022-08-20T09:02:33.067Z,17.52
2022-08-20T09:05:00.781Z,17.57
2022-08-20T09:07:30.323Z,17.72
2022-08-20T09:10:00.439Z,17.62
2022-08-20T09:12:27.133Z,17.60
2022-08-20T09:14:53.885Z,17.60
2022-08-20T09:17:21.226Z,17.44
2022-08-20T09:19:48.100Z,17.50
2022-08-20T09:22:19.500Z,17.47
2022-08-20T09:24:46.199Z,17.67
2022-08-20T09:27:12.928Z,17.33
2022-08-20T09:29:39.801Z,17.29
2022-08-20T09:32:09.503Z,17.26
2022-08-20T09:34:47.524Z,17.15
2022-08-20T09:37:14.348Z,17.39
2022-08-20T09:39:41.034Z,17.65
2022-08-20T09:42:17.451Z,17.50
2022-08-20T09:44:44.078Z,17.30
2022-08-20T09:47:10.801Z,17.39
2022-08-20T09:49:37.659Z,17.32
2022-08-20T09:52:05.936Z,17.11
2022-08-20T09:54:32.574Z,17.33
2022-08-20T09:57:00.520Z,17.43
2022-08-20T09:59:27.306Z,17.42
2022-08-20T10:01:54.076Z,17.39
2022-08-20T10:04:20.786Z,17.48
2022-08-20T10:06:48.946Z,17.51
2022-08-20T10:09:17.946Z,17.44
2022-08-20T10:11:44.569Z,17.40
2022-08-20T10:14:11.162Z,17.35
2022-08-20T10:16:37.949Z,17.31
2022-08-20T10:19:04.730Z,17.18
2022-08-20T10:21:35.463Z,17.06
2022-08-20T10:24:08.210Z,16.99
2022-08-20T10:26:34.824Z,16.86
2022-08-20T10:29:01.378Z,16.64
2022-08-20T10:31:28.167Z,16.64
2022-08-20T10:33:54.936Z,16.59
2022-08-20T10:36:21.692Z,16.60
2022-08-20T10:38:49.462Z,16.46
2022-08-20T10:41:16.321Z,16.49
2022-08-20T10:43:43.000Z,16.47
2022-08-20T10:46:09.762Z,16.50
2022-08-20T10:48:36.492Z,16.57
2022-08-20T10:51:03.496Z,16.52
2022-08-20T10:53:30.272Z,16.53
2022-08-20T10:55:57.086Z,16.49
2022-08-20T10:58:24.216Z,16.53
2022-08-20T11:00:51.130Z,16.50
2022-08-20T11:03:17.935Z,16.53
2022-08-20T11:05:44.678Z,16.52
2022-08-20T11:08:11.557Z,16.45
2022-08-20T11:10:38.419Z,16.42
2022-08-20T11:13:06.075Z,16.41
2022-08-20T11:15:37.181Z,16.50
2022-08-20T11:18:04.325Z,16.49
2022-08-20T11:20:31.063Z,16.34
2022-08-20T11:22:58.000Z,16.41
2022-08-20T11:25:27.432Z,16.42
2022-08-20T11:27:54.330Z,16.26
2022-08-20T11:30:25.368Z,16.28
2022-08-20T11:32:54.627Z,16.31
2022-08-20T11:38:11.521Z,16.35
2022-08-20T11:43:38.162Z,16.35
2022-08-20T11:46:04.864Z,16.40
2022-08-20T11:48:31.618Z,16.36
2022-08-20T11:50:58.351Z,16.30
2022-08-20T11:53:25.100Z,16.33
2022-08-20T11:55:52.481Z,16.43
2022-08-20T11:58:19.546Z,16.34
2022-08-20T12:00:48.926Z,16.32
2022-08-20T12:03:15.677Z,16.36
2022-08-20T12:05:44.445Z,16.42
2022-08-20T12:08:26.759Z,16.41
2022-08-20T12:10:56.023Z,16.42
2022-08-20T12:13:23.670Z,16.42
2022-08-20T12:16:09.492Z,16.42
2022-08-20T12:18:36.618Z,16.32
2022-08-20T12:21:03.277Z,16.30
2022-08-20T12:23:29.978Z,16.29
2022-08-20T12:25:56.655Z,16.38
2022-08-20T12:28:26.131Z,16.35
2022-08-20T12:30:52.852Z,16.41
2022-08-20T12:33:21.318Z,16.47
2022-08-20T12:35:47.984Z,16.44
2022-08-20T12:38:14.717Z,16.41
2022-08-20T12:40:41.443Z,16.49
2022-08-20T12:43:10.946Z,16.62
2022-08-20T12:45:38.321Z,16.56
2022-08-20T12:48:07.459Z,16.48
2022-08-20T12:50:34.255Z,16.57
2022-08-20T12:53:01.450Z,16.66
2022-08-20T12:58:30.569Z,16.56
2022-08-20T13:00:57.427Z,16.71
2022-08-20T13:03:24.169Z,16.58
2022-08-20T13:05:51.011Z,16.56
2022-08-20T13:08:20.656Z,16.70
2022-08-20T13:10:47.407Z,16.88
2022-08-20T13:13:19.883Z,16.95
2022-08-20T13:15:47.506Z,17.00
2022-08-20T13:18:14.189Z,17.04
2022-08-20T13:20:41.003Z,17.04
2022-08-20T13:23:10.892Z,17.10
2022-08-20T13:25:37.608Z,17.09
2022-08-20T13:28:04.703Z,17.08
2022-08-20T13:30:35.288Z,17.13
2022-08-20T13:33:02.031Z,17.09
2022-08-20T13:35:29.108Z,17.01
2022-08-20T13:38:01.887Z,16.98
2022-08-20T13:40:28.720Z,17.07
2022-08-20T13:42:55.593Z,16.92
2022-08-20T13:45:22.348Z,16.83
2022-08-20T13:47:52.124Z,16.72
2022-08-20T13:50:20.373Z,16.67
2022-08-20T13:52:47.305Z,16.66
2022-08-20T13:55:19.581Z,16.70
2022-08-20T13:57:47.048Z,16.77
2022-08-20T14:00:17.286Z,16.85
2022-08-20T14:02:44.191Z,16.87
2022-08-20T14:05:11.380Z,16.88
2022-08-20T14:07:41.101Z,16.96
2022-08-20T14:10:10.544Z,16.90
2022-08-20T14:12:37.549Z,16.94
2022-08-20T14:15:04.602Z,16.86
2022-08-20T14:17:36.642Z,16.88
2022-08-20T14:20:11.693Z,16.94
2022-08-20T14:22:38.402Z,16.99
2022-08-20T14:25:06.361Z,17.18
2022-08-20T14:27:33.118Z,17.16
2022-08-20T14:29:59.979Z,17.17
2022-08-20T14:32:27.453Z,17.11
2022-08-20T14:34:54.421Z,17.04
2022-08-20T14:37:27.795Z,17.14
2022-08-20T14:39:55.592Z,17.27
2022-08-20T14:42:22.294Z,17.24
2022-08-20T14:44:49.738Z,17.17
2022-08-20T14:47:21.497Z,17.16
2022-08-20T14:49:53.146Z,17.16
2022-08-20T14:52:20.668Z,17.14
2022-08-20T14:54:47.790Z,17.11
2022-08-20T14:57:15.244Z,17.20
2022-08-20T14:59:41.973Z,17.30
2022-08-20T15:02:10.154Z,17.31
2022-08-20T15:04:37.042Z,17.50
2022-08-20T15:07:10.931Z,17.42
2022-08-20T15:09:40.077Z,17.50
2022-08-20T15:12:07.274Z,17.33
2022-08-20T15:14:39.302Z,17.46
2022-08-20T15:17:06.359Z,17.42
2022-08-20T15:19:33.176Z,17.41
2022-08-20T15:21:59.872Z,17.51
2022-08-20T15:24:27.036Z,17.64
2022-08-20T15:26:54.277Z,17.61
2022-08-20T15:29:23.345Z,17.60
2022-08-20T15:31:51.007Z,17.61
2022-08-20T15:34:18.427Z,17.60
2022-08-20T15:36:45.912Z,17.56
2022-08-20T15:39:15.066Z,17.62
2022-08-20T15:41:42.227Z,17.48
2022-08-20T15:44:13.523Z,17.41
2022-08-20T15:46:42.264Z,17.37
2022-08-20T15:49:10.314Z,17.37
2022-08-20T15:51:47.459Z,17.45
2022-08-20T15:54:21.682Z,17.50
2022-08-20T15:57:00.195Z,17.54
2022-08-20T16:00:20.938Z,17.53
2022-08-20T16:03:10.842Z,17.59
2022-08-20T16:05:45.283Z,17.62
2022-08-20T16:08:44.368Z,17.57
2022-08-20T16:11:45.873Z,17.55
2022-08-20T16:14:25.500Z,17.54
2022-08-20T16:17:13.947Z,17.50
2022-08-20T16:20:00.528Z,17.51
2022-08-20T16:22:28.711Z,17.53
2022-08-20T16:24:55.775Z,17.38
2022-08-20T16:27:45.417Z,17.29
2022-08-20T16:30:21.792Z,17.35
2022-08-20T16:32:54.695Z,17.21
2022-08-20T16:35:29.433Z,17.28
2022-08-20T16:38:03.993Z,17.32
2022-08-20T16:40:42.820Z,17.30
2022-08-20T16:43:10.761Z,17.14
2022-08-20T16:46:02.519Z,16.94
2022-08-20T16:48:34.148Z,16.66
2022-08-20T16:51:11.050Z,16.42
2022-08-20T16:53:37.877Z,16.39
2022-08-20T16:56:04.765Z,16.46
2022-08-20T16:58:31.896Z,16.41
2022-08-20T17:01:14.707Z,16.40
2022-08-20T17:03:50.829Z,16.35
2022-08-20T17:06:36.363Z,16.41
2022-08-20T17:09:12.005Z,16.41
2022-08-20T17:11:39.282Z,16.32
2022-08-20T17:14:08.855Z,16.30
2022-08-20T17:16:38.778Z,16.29
2022-08-20T17:19:20.432Z,16.31
2022-08-20T17:21:50.533Z,16.23
2022-08-20T17:24:22.675Z,16.25
2022-08-20T17:26:54.031Z,16.16
2022-08-20T17:29:26.886Z,16.11
2022-08-20T17:31:56.090Z,16.09
2022-08-20T17:34:31.580Z,16.08
2022-08-20T17:37:08.720Z,16.10
2022-08-20T17:39:35.462Z,16.06
2022-08-20T17:42:07.723Z,16.09
2022-08-20T17:44:37.340Z,16.05
2022-08-20T17:47:04.509Z,16.09
2022-08-20T17:50:13.688Z,16.05
2022-08-20T17:52:56.169Z,15.98
2022-08-20T17:55:23.210Z,16.00
2022-08-20T17:57:52.373Z,16.00
2022-08-20T18:00:21.948Z,16.04
2022-08-20T18:02:49.912Z,15.95
2022-08-20T18:05:19.211Z,16.04
2022-08-20T18:08:15.771Z,15.95
2022-08-20T18:10:51.606Z,15.94
2022-08-20T18:13:19.076Z,15.83
2022-08-20T18:15:58.298Z,15.91
2022-08-20T18:18:56.684Z,15.79
2022-08-20T18:21:33.048Z,15.77
2022-08-20T18:24:12.211Z,15.92
2022-08-20T18:27:01.178Z,15.77
2022-08-20T18:29:35.427Z,15.75
2022-08-20T18:32:25.086Z,15.76
2022-08-20T18:34:51.973Z,15.77
2022-08-20T18:37:24.265Z,15.70
2022-08-20T18:39:51.098Z,15.70
2022-08-20T18:42:19.942Z,15.77
2022-08-20T18:44:47.795Z,15.71
2022-08-20T18:47:20.563Z,15.80
2022-08-20T18:49:47.811Z,15.73
2022-08-20T18:52:16.730Z,15.72
2022-08-20T18:54:49.836Z,15.76
2022-08-20T18:57:22.954Z,15.77
2022-08-20T19:00:04.835Z,15.71
2022-08-20T19:02:33.042Z,15.64
2022-08-20T19:05:03.051Z,15.62
2022-08-20T19:07:48.149Z,15.60
2022-08-20T19:10:41.868Z,15.67
2022-08-20T19:13:26.080Z,15.58
2022-08-20T19:15:56.828Z,15.67
2022-08-20T19:18:46.602Z,15.54
2022-08-20T19:21:16.033Z,15.54
2022-08-20T19:23:48.056Z,15.56
2022-08-20T19:26:24.913Z,15.54
2022-08-20T19:28:59.617Z,15.53
2022-08-20T19:31:33.020Z,15.47
2022-08-20T19:34:21.957Z,15.50
2022-08-20T19:37:28.188Z,15.44
2022-08-20T19:39:52.656Z,15.45
2022-08-20T19:42:30.138Z,15.48
2022-08-20T19:45:00.073Z,15.44
2022-08-20T19:48:08.248Z,15.44
2022-08-20T19:50:42.737Z,15.44
2022-08-20T19:53:30.907Z,15.51
2022-08-20T19:56:03.466Z,15.42
2022-08-20T19:58:33.826Z,15.45
2022-08-20T20:01:01.586Z,15.40
2022-08-20T20:03:30.568Z,15.40
2022-08-20T20:06:16.615Z,15.36
2022-08-20T20:09:04.326Z,15.41
2022-08-20T20:11:36.002Z,15.35
2022-08-20T20:14:04.636Z,15.37
2022-08-20T20:16:31.582Z,15.37
2022-08-20T20:19:22.760Z,15.38
2022-08-20T20:21:47.937Z,15.39
2022-08-20T20:24:28.261Z,15.37
2022-08-20T20:26:55.342Z,15.36
2022-08-20T20:29:34.005Z,15.39
2022-08-20T20:32:01.547Z,15.35
2022-08-20T20:34:36.606Z,15.27
2022-08-20T20:37:49.082Z,15.30
2022-08-20T20:40:36.093Z,15.27
2022-08-20T20:47:09.452Z,15.32
2022-08-20T20:52:49.861Z,15.38
2022-08-20T21:02:45.270Z,15.39
2022-08-20T21:08:14.148Z,15.41
2022-08-20T21:10:43.054Z,15.34
2022-08-20T21:13:14.976Z,15.38
2022-08-20T21:15:45.479Z,15.37
2022-08-20T21:18:26.430Z,15.38
2022-08-20T21:20:59.244Z,15.42
2022-08-20T21:23:40.289Z,15.44
2022-08-20T21:26:20.266Z,15.36
2022-08-20T21:28:53.849Z,15.38
2022-08-20T21:31:23.008Z,15.34
2022-08-20T21:33:56.097Z,15.33
2022-08-20T21:36:28.137Z,15.33
2022-08-20T21:39:02.127Z,15.29
2022-08-20T21:41:37.419Z,15.27
2022-08-20T21:44:29.643Z,15.26
2022-08-20T21:47:02.139Z,15.27
2022-08-20T21:49:31.837Z,15.24
2022-08-20T21:52:01.797Z,15.23
2022-08-20T21:54:36.182Z,15.27
2022-08-20T21:57:19.940Z,15.28
2022-08-20T21:59:51.567Z,15.29
2022-08-20T22:02:28.040Z,15.29
2022-08-20T22:07:39.231Z,15.25
2022-08-20T22:10:11.303Z,15.28
2022-08-20T22:12:42.416Z,15.26
2022-08-20T22:15:16.086Z,15.28
2022-08-20T22:17:49.275Z,15.32
2022-08-20T22:20:21.267Z,15.33
2022-08-20T22:22:58.071Z,15.35
2022-08-20T22:28:23.518Z,15.29
2022-08-20T22:30:58.281Z,15.38
2022-08-20T22:33:31.922Z,15.35
2022-08-20T22:36:03.861Z,15.30
2022-08-20T22:38:40.728Z,15.29
2022-08-20T22:41:15.960Z,15.24
2022-08-20T22:43:56.754Z,15.21
2022-08-20T22:46:27.202Z,15.22
2022-08-20T22:49:05.752Z,15.21
2022-08-20T22:51:41.772Z,15.16
2022-08-20T22:54:13.441Z,15.15
2022-08-20T22:56:55.167Z,15.06
2022-08-20T22:59:28.003Z,15.15
2022-08-20T23:02:06.662Z,15.07
2022-08-20T23:04:47.600Z,15.07
2022-08-20T23:07:29.150Z,15.11
2022-08-20T23:10:01.302Z,15.08
2022-08-20T23:12:46.636Z,15.05
2022-08-20T23:15:20.310Z,15.05
2022-08-20T23:18:06.987Z,15.00
2022-08-20T23:20:41.268Z,15.03
2022-08-20T23:23:16.090Z,15.07
2022-08-20T23:26:01.496Z,15.01
2022-08-20T23:28:39.817Z,14.93
2022-08-20T23:31:14.368Z,14.95
2022-08-20T23:33:52.585Z,15.00
2022-08-20T23:36:31.582Z,15.11
2022-08-20T23:39:09.949Z,14.98
2022-08-20T23:44:34.364Z,14.98
2022-08-20T23:47:10.506Z,14.94
2022-08-20T23:49:48.478Z,14.94
2022-08-20T23:52:24.018Z,14.98
2022-08-20T23:54:58.902Z,14.98
2022-08-20T23:57:38.040Z,14.95
